< Typhoon 196016 1960 Season Typhoon 196018 >
Typhoon 196017 (ELAINE)
General InformationTrack Information on Google Maps || Disaster Info.ResourceGoogle EarthGE AnimationAtom FeedGeoJSON
Detalied Best Track (Time Zone = UTC)
Year Month Day Hour Lat. Long. Pressure (hPa) Wind (kt) Class Image Chart
1960 8 18 06 21.0 115.5 999 0 2 -- Chart
1960 8 18 12 20.6 115.5 998 0 2 -- Chart
1960 8 18 18 20.3 115.7 996 0 2 -- Chart
1960 8 19 00 20.0 116.0 996 0 2 -- Chart
1960 8 19 06 19.7 116.3 996 0 2 -- Chart
1960 8 19 12 19.5 116.7 996 0 2 -- Chart
1960 8 19 18 19.6 117.0 996 0 2 -- Chart
1960 8 20 00 19.7 117.3 992 0 2 -- Chart
1960 8 20 06 20.0 117.5 990 0 9 -- Chart
1960 8 20 12 20.2 117.6 988 0 9 -- Chart
1960 8 20 18 20.4 117.7 990 0 9 -- Chart
1960 8 21 00 20.6 117.8 990 0 9 -- Chart
1960 8 21 06 20.5 118.6 990 0 9 -- Chart
1960 8 21 12 20.5 119.2 990 0 9 -- Chart
1960 8 21 18 20.6 120.2 975 0 9 -- Chart
1960 8 22 00 20.9 121.0 975 0 9 -- Chart
1960 8 22 06 21.8 121.6 980 0 9 -- Chart
1960 8 22 12 22.5 122.0 980 0 9 -- Chart
1960 8 22 18 23.3 122.3 980 0 9 -- Chart
1960 8 23 00 23.8 122.3 985 0 9 -- Chart
1960 8 23 06 23.8 122.0 994 0 9 -- Chart
1960 8 23 12 23.5 120.7 996 0 9 -- Chart
1960 8 23 18 23.4 120.5 998 0 9 -- Chart
1960 8 24 00 23.2 119.6 996 0 9 -- Chart
1960 8 24 06 23.0 119.0 996 0 9 -- Chart
1960 8 24 12 23.2 118.4 996 0 9 -- Chart
1960 8 24 18 23.5 117.5 998 0 9 -- Chart
1960 8 25 00 23.0 116.3 1000 0 2 -- Chart
1960 8 25 06 24.0 115.5 998 0 2 -- Chart
1960 8 25 12 25.0 115.0 1000 0 2 -- Chart
Japan Meteorological Agency Best Track Data | Correction Date : 1989-06-01
< Typhoon 196016 1960 Season Typhoon 196018 >

Help